createdAt,value
2023-04-25T00:00:26.238Z,72.41
2023-04-25T00:02:57.275Z,71.82
2023-04-25T00:05:31.667Z,71.09
2023-04-25T00:08:05.223Z,71.21
2023-04-25T00:10:37.101Z,70.93
2023-04-25T00:13:05.577Z,70.64
2023-04-25T00:15:42.147Z,71.71
2023-04-25T00:18:23.265Z,70.98
2023-04-25T00:20:55.128Z,71.27
2023-04-25T00:23:25.891Z,72.17
2023-04-25T00:25:55.393Z,71.46
2023-04-25T00:28:24.445Z,72.08
2023-04-25T00:30:55.504Z,72.06
2023-04-25T00:33:24.447Z,72.47
2023-04-25T00:36:01.793Z,71.97
2023-04-25T00:38:30.822Z,71.82
2023-04-25T00:41:08.222Z,72.45
2023-04-25T00:43:39.027Z,72.38
2023-04-25T00:46:15.343Z,72.58
2023-04-25T00:48:45.086Z,73.28
2023-04-25T00:51:18.271Z,73.17
2023-04-25T00:53:49.548Z,73.23
2023-04-25T00:56:24.125Z,72.18
2023-04-25T00:58:57.997Z,72.85
2023-04-25T01:01:45.162Z,73.03
2023-04-25T01:04:13.791Z,73.36
2023-04-25T01:07:00.304Z,72.56
2023-04-25T01:09:30.871Z,72.56
2023-04-25T01:12:03.907Z,72.23
2023-04-25T01:14:34.991Z,72.46
2023-04-25T01:17:10.980Z,72.98
2023-04-25T01:19:39.590Z,73.32
2023-04-25T01:22:25.332Z,71.94
2023-04-25T01:24:54.865Z,72.18
2023-04-25T01:27:26.315Z,72.39
2023-04-25T01:29:58.656Z,71.50
2023-04-25T01:32:28.330Z,71.43
2023-04-25T01:34:58.243Z,71.24
2023-04-25T01:37:33.739Z,70.94
2023-04-25T01:40:07.146Z,70.83
2023-04-25T01:42:47.464Z,70.08
2023-04-25T01:45:16.683Z,70.12
2023-04-25T01:47:50.613Z,70.78
2023-04-25T01:50:22.859Z,69.42
2023-04-25T01:52:55.526Z,69.63
2023-04-25T01:55:31.417Z,69.81
2023-04-25T01:58:14.026Z,69.64
2023-04-25T02:01:12.108Z,68.98
2023-04-25T02:03:56.262Z,68.90
2023-04-25T02:06:44.084Z,69.15
2023-04-25T02:09:22.419Z,69.43
2023-04-25T02:11:58.865Z,69.31
2023-04-25T02:14:30.920Z,69.94
2023-04-25T02:17:35.118Z,69.97
2023-04-25T02:20:07.752Z,70.84
2023-04-25T02:22:42.100Z,71.01
2023-04-25T02:25:18.112Z,70.11
2023-04-25T02:27:49.767Z,70.79
2023-04-25T02:30:30.674Z,71.08
2023-04-25T02:33:11.463Z,72.50
2023-04-25T02:35:42.507Z,72.88
2023-04-25T02:38:16.124Z,72.68
2023-04-25T02:40:48.702Z,72.89
2023-04-25T02:43:35.445Z,72.79
2023-04-25T02:46:06.404Z,73.12
2023-04-25T02:48:36.097Z,73.16
2023-04-25T02:51:07.386Z,73.11
2023-04-25T02:53:37.593Z,72.74
2023-04-25T02:56:08.685Z,74.07
2023-04-25T02:58:43.517Z,73.01
2023-04-25T03:01:14.974Z,73.05
2023-04-25T03:03:50.196Z,73.08
2023-04-25T03:06:22.674Z,72.31
2023-04-25T03:08:59.672Z,72.16
2023-04-25T03:11:31.436Z,71.36
2023-04-25T03:14:03.524Z,72.83
2023-04-25T03:16:32.618Z,72.53
2023-04-25T03:19:03.371Z,72.35
2023-04-25T03:21:33.411Z,71.87
2023-04-25T03:24:05.148Z,73.82
2023-04-25T03:26:43.008Z,73.24
2023-04-25T03:29:12.960Z,72.40
2023-04-25T03:31:49.176Z,73.36
2023-04-25T03:34:22.561Z,73.76
2023-04-25T03:37:01.688Z,72.99
2023-04-25T03:39:36.180Z,73.15
2023-04-25T03:42:13.202Z,73.17
2023-04-25T03:44:47.587Z,73.17
2023-04-25T03:47:24.857Z,73.17
2023-04-25T03:49:54.143Z,73.03
2023-04-25T03:52:25.563Z,73.03
2023-04-25T03:54:56.812Z,72.83
2023-04-25T03:57:31.534Z,72.79
2023-04-25T04:00:07.295Z,73.03
2023-04-25T04:02:58.814Z,72.49
2023-04-25T04:05:36.382Z,72.72
2023-04-25T04:08:11.456Z,72.50
2023-04-25T04:10:44.366Z,72.33
2023-04-25T04:13:29.003Z,72.02
2023-04-25T04:16:02.781Z,72.52
2023-04-25T04:18:33.282Z,72.33
2023-04-25T04:21:01.766Z,72.21
2023-04-25T04:23:42.256Z,72.42
2023-04-25T04:26:21.708Z,71.48
2023-04-25T04:29:02.989Z,72.18
2023-04-25T04:32:05.108Z,72.51
2023-04-25T04:34:46.050Z,72.28
2023-04-25T04:37:30.155Z,72.15
2023-04-25T04:40:06.311Z,71.53
2023-04-25T04:43:00.193Z,72.51
2023-04-25T04:46:07.737Z,71.80
2023-04-25T04:49:07.907Z,72.13
2023-04-25T04:51:46.727Z,70.82
2023-04-25T04:54:38.881Z,71.92
2023-04-25T04:57:29.163Z,71.59
2023-04-25T05:00:26.227Z,70.82
2023-04-25T05:03:23.938Z,70.66
2023-04-25T05:06:07.521Z,70.76
2023-04-25T05:09:02.066Z,71.06
2023-04-25T05:11:53.695Z,70.47
2023-04-25T05:14:51.888Z,70.61
2023-04-25T05:17:40.553Z,71.29
2023-04-25T05:20:46.590Z,71.84
2023-04-25T05:23:30.728Z,72.36
2023-04-25T05:26:38.804Z,72.88
2023-04-25T05:29:24.553Z,72.52
2023-04-25T05:32:27.213Z,72.48
2023-04-25T05:35:00.748Z,72.34
2023-04-25T05:37:43.852Z,73.20
2023-04-25T05:40:19.765Z,72.74
2023-04-25T05:42:59.752Z,71.87
2023-04-25T05:45:41.947Z,72.23
2023-04-25T05:48:34.242Z,72.07
2023-04-25T05:51:38.329Z,71.03
2023-04-25T05:54:38.378Z,70.05
2023-04-25T05:57:17.188Z,70.37
2023-04-25T05:59:46.150Z,69.12
2023-04-25T06:02:30.581Z,67.71
2023-04-25T06:05:02.891Z,67.07
2023-04-25T06:07:38.731Z,65.79
2023-04-25T06:10:12.461Z,65.11
2023-04-25T06:12:44.224Z,64.69
2023-04-25T06:15:28.069Z,63.98
2023-04-25T06:18:01.530Z,64.47
2023-04-25T06:20:31.276Z,64.50
2023-04-25T06:23:02.003Z,64.17
2023-04-25T06:26:08.358Z,64.22
2023-04-25T06:28:41.461Z,62.74
2023-04-25T06:31:11.965Z,62.43
2023-04-25T06:33:50.471Z,62.62
2023-04-25T06:36:26.018Z,62.22
2023-04-25T06:39:00.431Z,62.41
2023-04-25T06:41:37.981Z,61.42
2023-04-25T06:44:11.934Z,61.95
2023-04-25T06:46:53.394Z,60.93
2023-04-25T06:49:26.244Z,60.51
2023-04-25T06:51:59.068Z,60.13
2023-04-25T06:54:37.304Z,58.64
2023-04-25T06:57:35.021Z,58.65
2023-04-25T07:00:26.040Z,58.89
2023-04-25T07:02:57.302Z,58.38
2023-04-25T07:05:26.834Z,57.26
2023-04-25T07:07:58.485Z,56.71
2023-04-25T07:10:29.279Z,56.99
2023-04-25T07:13:00.289Z,56.68
2023-04-25T07:15:32.144Z,57.21
2023-04-25T07:18:09.282Z,57.98
2023-04-25T07:20:43.988Z,58.37
2023-04-25T07:23:15.801Z,58.30
2023-04-25T07:25:47.065Z,58.27
2023-04-25T07:28:21.876Z,58.27
2023-04-25T07:30:53.664Z,58.00
2023-04-25T07:33:24.779Z,57.85
2023-04-25T07:35:56.047Z,57.58
2023-04-25T07:38:27.840Z,57.92
2023-04-25T07:40:59.299Z,57.43
2023-04-25T07:43:37.189Z,56.58
2023-04-25T07:46:07.536Z,58.18
2023-04-25T07:48:50.103Z,56.66
2023-04-25T07:51:21.414Z,55.69
2023-04-25T07:53:57.304Z,57.44
2023-04-25T07:56:38.475Z,56.64
2023-04-25T07:59:18.126Z,56.42
2023-04-25T08:01:50.538Z,56.88
2023-04-25T08:04:22.883Z,56.57
2023-04-25T08:06:59.497Z,56.21
2023-04-25T08:09:45.626Z,56.45
2023-04-25T08:12:29.638Z,55.72
2023-04-25T08:15:00.931Z,55.30
2023-04-25T08:17:46.505Z,56.10
2023-04-25T08:20:18.606Z,55.52
2023-04-25T08:22:52.516Z,56.33
2023-04-25T08:25:38.149Z,55.42
2023-04-25T08:28:07.701Z,55.11
2023-04-25T08:30:42.506Z,55.16
2023-04-25T08:33:18.847Z,54.00
2023-04-25T08:36:24.509Z,53.63
2023-04-25T08:39:06.810Z,53.67
2023-04-25T08:41:50.263Z,54.08
2023-04-25T08:44:24.230Z,53.39
2023-04-25T08:46:57.040Z,53.17
2023-04-25T08:49:35.620Z,54.21
2023-04-25T08:52:07.420Z,52.99
2023-04-25T08:54:46.249Z,51.62
2023-04-25T08:57:15.359Z,51.38
2023-04-25T08:59:52.239Z,51.92
2023-04-25T09:02:27.786Z,50.48
2023-04-25T09:04:57.586Z,50.96
2023-04-25T09:07:26.843Z,51.67
2023-04-25T09:10:00.790Z,51.71
2023-04-25T09:12:40.898Z,51.78
2023-04-25T09:18:30.815Z,53.51
2023-04-25T09:21:13.628Z,53.43
2023-04-25T09:23:56.598Z,54.57
2023-04-25T09:26:32.857Z,55.12
2023-04-25T09:29:14.121Z,54.06
2023-04-25T09:31:49.065Z,55.98
2023-04-25T09:34:42.302Z,56.42
2023-04-25T09:37:19.844Z,57.30
2023-04-25T09:40:19.945Z,58.39
2023-04-25T09:43:20.671Z,62.59
2023-04-25T09:45:56.763Z,65.13
2023-04-25T09:48:27.958Z,65.69
2023-04-25T09:51:19.197Z,65.43
2023-04-25T09:53:53.080Z,64.26
2023-04-25T09:57:07.303Z,61.22
2023-04-25T09:59:41.913Z,59.92
2023-04-25T10:02:12.864Z,56.26
2023-04-25T10:04:51.375Z,57.33
2023-04-25T10:07:43.965Z,56.95
2023-04-25T10:10:31.540Z,56.88
2023-04-25T10:13:08.613Z,56.53
2023-04-25T10:15:41.818Z,57.16
2023-04-25T10:18:13.277Z,54.89
2023-04-25T10:20:45.893Z,54.28
2023-04-25T10:23:20.116Z,52.55
2023-04-25T10:25:58.764Z,52.17
2023-04-25T10:28:37.282Z,52.47
2023-04-25T10:31:08.856Z,53.33
2023-04-25T10:33:43.479Z,55.29
2023-04-25T10:36:13.906Z,55.43
2023-04-25T10:38:47.743Z,54.81
2023-04-25T10:41:17.486Z,55.46
2023-04-25T10:43:51.969Z,54.58
2023-04-25T10:46:33.168Z,53.91
2023-04-25T10:49:15.687Z,52.33
2023-04-25T10:51:55.460Z,52.46
2023-04-25T10:54:51.743Z,51.78
2023-04-25T10:57:37.225Z,51.12
2023-04-25T11:00:25.661Z,51.28
2023-04-25T11:03:02.036Z,50.96
2023-04-25T11:05:40.990Z,49.79
2023-04-25T11:08:38.440Z,48.36
2023-04-25T11:11:27.038Z,47.61
2023-04-25T11:13:57.149Z,47.38
2023-04-25T11:16:28.811Z,46.78
2023-04-25T11:19:03.949Z,46.37
2023-04-25T11:21:41.729Z,45.70
2023-04-25T11:24:15.909Z,45.69
2023-04-25T11:26:52.101Z,45.87
2023-04-25T11:29:31.873Z,46.97
2023-04-25T11:32:06.369Z,47.43
2023-04-25T11:34:36.005Z,48.70
2023-04-25T11:37:09.247Z,55.64
2023-04-25T11:39:40.119Z,61.82
2023-04-25T11:42:27.307Z,66.06
2023-04-25T11:45:03.945Z,71.12
2023-04-25T11:47:43.985Z,75.86
2023-04-25T11:50:16.230Z,78.40
2023-04-25T11:52:54.684Z,78.44
2023-04-25T11:55:26.886Z,78.18
2023-04-25T11:58:02.473Z,77.96
2023-04-25T12:00:33.968Z,75.49
2023-04-25T12:03:09.647Z,75.89
2023-04-25T12:05:42.418Z,75.36
2023-04-25T12:08:23.610Z,75.29
2023-04-25T12:10:52.404Z,74.51
2023-04-25T12:13:25.408Z,72.60
2023-04-25T12:16:01.627Z,68.72
2023-04-25T12:18:42.693Z,68.41
2023-04-25T12:21:18.435Z,65.45
2023-04-25T12:23:53.709Z,65.26
2023-04-25T12:26:31.816Z,64.19
2023-04-25T12:29:02.646Z,61.99
2023-04-25T12:31:38.997Z,60.52
2023-04-25T12:34:11.436Z,58.35
2023-04-25T12:36:43.305Z,58.23
2023-04-25T12:39:19.392Z,57.44
2023-04-25T12:41:50.886Z,56.80
2023-04-25T12:44:34.516Z,56.82
2023-04-25T12:47:04.572Z,54.95
2023-04-25T12:49:38.476Z,55.71
2023-04-25T12:52:07.510Z,56.31
2023-04-25T12:54:45.287Z,55.45
2023-04-25T12:57:29.784Z,52.35
2023-04-25T13:00:04.483Z,49.82
2023-04-25T13:02:35.599Z,49.03
2023-04-25T13:05:05.744Z,47.63
2023-04-25T13:07:37.163Z,48.26
2023-04-25T13:10:07.736Z,47.65
2023-04-25T13:12:36.366Z,47.60
2023-04-25T13:15:10.355Z,46.30
2023-04-25T13:17:41.360Z,45.82
2023-04-25T13:20:11.898Z,44.64
2023-04-25T13:22:41.204Z,44.31
2023-04-25T13:25:10.699Z,44.96
2023-04-25T13:27:44.705Z,45.18
2023-04-25T13:30:26.172Z,44.23
2023-04-25T13:32:58.191Z,42.25
2023-04-25T13:35:30.006Z,42.55
2023-04-25T13:37:59.601Z,42.53
2023-04-25T13:40:31.264Z,41.71
2023-04-25T13:43:03.187Z,41.80
2023-04-25T13:45:35.144Z,42.07
2023-04-25T13:48:10.245Z,42.77
2023-04-25T13:50:41.365Z,40.80
2023-04-25T13:53:11.997Z,40.71
2023-04-25T13:55:43.457Z,41.50
2023-04-25T13:58:16.255Z,43.21
2023-04-25T14:00:48.625Z,44.08
2023-04-25T14:03:17.351Z,45.37
2023-04-25T14:05:47.553Z,45.41
2023-04-25T14:08:16.655Z,45.74
2023-04-25T14:10:45.513Z,45.35
2023-04-25T14:13:15.134Z,44.36
2023-04-25T14:15:47.193Z,44.46
2023-04-25T14:18:16.851Z,45.56
2023-04-25T14:20:46.365Z,45.54
2023-04-25T14:23:15.903Z,44.94
2023-04-25T14:25:46.489Z,46.22
2023-04-25T14:28:27.658Z,46.73
2023-04-25T14:31:07.739Z,47.35
2023-04-25T14:33:38.367Z,50.07
2023-04-25T14:36:09.396Z,51.61
2023-04-25T14:38:44.787Z,52.77
2023-04-25T14:41:13.603Z,52.00
2023-04-25T14:43:44.615Z,53.01
2023-04-25T14:46:18.784Z,52.35
2023-04-25T14:48:52.543Z,53.19
2023-04-25T14:51:26.238Z,54.11
2023-04-25T14:53:55.599Z,53.32
2023-04-25T14:56:25.103Z,52.44
2023-04-25T14:58:56.749Z,52.14
2023-04-25T15:01:29.764Z,52.58
2023-04-25T15:03:58.652Z,52.62
2023-04-25T15:06:29.819Z,52.30
2023-04-25T15:08:58.566Z,52.49
2023-04-25T15:11:28.970Z,51.64
2023-04-25T15:14:06.571Z,52.46
2023-04-25T15:16:46.205Z,53.73
2023-04-25T15:19:20.451Z,55.64
2023-04-25T15:21:52.492Z,58.12
2023-04-25T15:24:23.749Z,59.56
2023-04-25T15:26:53.541Z,57.96
2023-04-25T15:29:24.288Z,54.86
2023-04-25T15:31:54.802Z,51.84
2023-04-25T15:34:24.156Z,52.11
2023-04-25T15:36:59.046Z,51.80
2023-04-25T15:39:27.712Z,50.71
2023-04-25T15:41:59.980Z,50.16
2023-04-25T15:44:30.973Z,49.62
2023-04-25T15:47:05.005Z,48.88
2023-04-25T15:49:37.554Z,48.89
2023-04-25T15:52:09.384Z,48.88
2023-04-25T15:54:42.561Z,49.90
2023-04-25T15:57:13.200Z,52.25
2023-04-25T15:59:42.776Z,53.08
2023-04-25T16:02:14.887Z,54.78
2023-04-25T16:04:49.498Z,58.08
2023-04-25T16:07:23.163Z,57.66
2023-04-25T16:09:52.953Z,58.90
2023-04-25T16:12:23.997Z,59.55
2023-04-25T16:14:52.278Z,60.14
2023-04-25T16:17:24.370Z,60.84
2023-04-25T16:19:56.036Z,60.05
2023-04-25T16:22:28.277Z,60.23
2023-04-25T16:24:57.500Z,60.94
2023-04-25T16:27:28.114Z,58.68
2023-04-25T16:29:57.402Z,58.54
2023-04-25T16:32:28.600Z,57.56
2023-04-25T16:34:58.934Z,54.57
2023-04-25T16:37:39.833Z,55.37
2023-04-25T16:40:18.571Z,57.29
2023-04-25T16:42:49.155Z,58.78
2023-04-25T16:45:21.530Z,58.50
2023-04-25T16:48:02.643Z,58.76
2023-04-25T16:50:32.000Z,58.44
2023-04-25T16:53:12.345Z,58.56
2023-04-25T16:55:46.868Z,57.98
2023-04-25T16:58:17.360Z,58.33
2023-04-25T17:00:49.994Z,58.23
2023-04-25T17:03:27.049Z,58.24
2023-04-25T17:06:02.040Z,57.32
2023-04-25T17:08:36.881Z,56.42
2023-04-25T17:11:20.648Z,55.57
2023-04-25T17:13:57.826Z,56.71
2023-04-25T17:16:37.323Z,58.53
2023-04-25T17:19:17.050Z,62.60
2023-04-25T17:21:59.906Z,63.49
2023-04-25T17:24:38.149Z,65.71
2023-04-25T17:27:17.025Z,66.49
2023-04-25T17:29:51.129Z,66.66
2023-04-25T17:32:29.781Z,66.96
2023-04-25T17:35:25.308Z,66.97
2023-04-25T17:38:00.260Z,67.31
2023-04-25T17:40:32.509Z,67.71
2023-04-25T17:43:01.778Z,67.88
2023-04-25T17:45:34.899Z,69.19
2023-04-25T17:48:09.791Z,69.12
2023-04-25T17:50:50.161Z,69.25
2023-04-25T17:53:28.207Z,68.70
2023-04-25T17:56:01.312Z,69.53
2023-04-25T17:58:32.559Z,69.99
2023-04-25T18:01:12.304Z,70.47
2023-04-25T18:03:53.673Z,70.72
2023-04-25T18:06:37.195Z,69.66
2023-04-25T18:09:19.238Z,69.97
2023-04-25T18:11:59.624Z,68.91
2023-04-25T18:14:30.942Z,69.49
2023-04-25T18:17:15.147Z,68.59
2023-04-25T18:20:02.656Z,68.76
2023-04-25T18:22:41.741Z,68.52
2023-04-25T18:25:17.703Z,68.29
2023-04-25T18:27:56.319Z,68.88
2023-04-25T18:30:47.756Z,68.97
2023-04-25T18:33:21.674Z,69.86
2023-04-25T18:35:59.152Z,69.90
2023-04-25T18:38:56.208Z,70.77
2023-04-25T18:41:53.575Z,70.53
2023-04-25T18:44:32.921Z,70.60
2023-04-25T18:47:19.172Z,71.05
2023-04-25T18:49:52.089Z,71.20
2023-04-25T18:52:29.190Z,69.94
2023-04-25T18:55:18.847Z,71.96
2023-04-25T18:57:54.704Z,71.29
2023-04-25T19:00:34.195Z,71.06
2023-04-25T19:03:11.271Z,71.21
2023-04-25T19:05:43.217Z,71.58
2023-04-25T19:08:24.867Z,71.70
2023-04-25T19:11:17.999Z,70.80
2023-04-25T19:14:05.693Z,71.93
2023-04-25T19:16:47.522Z,72.91
2023-04-25T19:19:24.678Z,72.19
2023-04-25T19:22:03.468Z,72.34
2023-04-25T19:27:30.960Z,72.29
2023-04-25T19:30:12.118Z,73.23
2023-04-25T19:32:50.170Z,74.11
2023-04-25T19:35:22.332Z,73.97
2023-04-25T19:38:04.888Z,73.50
2023-04-25T19:40:45.241Z,73.59
2023-04-25T19:43:22.740Z,73.38
2023-04-25T19:45:52.406Z,74.32
2023-04-25T19:48:30.502Z,74.86
2023-04-25T19:51:07.479Z,74.79
2023-04-25T19:53:49.126Z,75.95
2023-04-25T19:56:28.446Z,75.43
2023-04-25T19:59:10.427Z,76.21
2023-04-25T20:01:46.428Z,76.64
2023-04-25T20:04:24.595Z,78.50
2023-04-25T20:06:56.451Z,77.68
2023-04-25T20:09:35.770Z,77.83
2023-04-25T20:12:18.622Z,77.95
2023-04-25T20:15:02.246Z,78.48
2023-04-25T20:17:42.668Z,78.84
2023-04-25T20:20:28.900Z,80.01
2023-04-25T20:23:00.187Z,80.56
2023-04-25T20:25:43.979Z,80.39
2023-04-25T20:28:19.148Z,80.86
2023-04-25T20:30:56.349Z,80.33
2023-04-25T20:33:37.861Z,80.22
2023-04-25T20:36:11.084Z,81.44
2023-04-25T20:38:48.005Z,80.74
2023-04-25T20:41:17.815Z,80.96
2023-04-25T20:43:53.505Z,80.65
2023-04-25T20:46:23.824Z,80.19
2023-04-25T20:48:54.576Z,80.86
2023-04-25T20:51:25.177Z,80.56
2023-04-25T20:53:57.641Z,82.49
2023-04-25T20:56:36.706Z,81.14
2023-04-25T20:59:16.067Z,81.39
2023-04-25T21:01:57.367Z,82.04
2023-04-25T21:04:26.535Z,82.24
2023-04-25T21:07:08.044Z,81.05
2023-04-25T21:09:45.850Z,78.73
2023-04-25T21:12:17.586Z,78.58
2023-04-25T21:14:57.428Z,78.15
2023-04-25T21:17:28.698Z,78.47
2023-04-25T21:20:07.435Z,77.90
2023-04-25T21:22:44.393Z,78.88
2023-04-25T21:25:20.426Z,77.90
2023-04-25T21:27:57.177Z,77.31
2023-04-25T21:30:34.113Z,78.29
2023-04-25T21:33:06.538Z,78.75
2023-04-25T21:35:41.059Z,78.40
2023-04-25T21:38:11.614Z,77.88
2023-04-25T21:40:43.608Z,78.09
2023-04-25T21:43:17.591Z,78.55
2023-04-25T21:46:14.782Z,77.29
2023-04-25T21:48:40.106Z,78.11
2023-04-25T21:51:08.472Z,76.71
2023-04-25T21:53:37.704Z,77.25
2023-04-25T21:56:08.459Z,77.40
2023-04-25T21:58:47.078Z,78.38
2023-04-25T22:01:23.508Z,77.31
2023-04-25T22:04:06.850Z,76.08
2023-04-25T22:06:50.855Z,76.60
2023-04-25T22:09:22.205Z,75.97
2023-04-25T22:11:53.506Z,76.18
2023-04-25T22:14:24.382Z,75.02
2023-04-25T22:16:56.813Z,75.15
2023-04-25T22:19:33.857Z,73.98
2023-04-25T22:22:05.376Z,74.05
2023-04-25T22:24:34.919Z,74.08
2023-04-25T22:27:09.564Z,73.59
2023-04-25T22:29:41.811Z,72.83
2023-04-25T22:32:11.136Z,70.84
2023-04-25T22:34:46.333Z,70.19
2023-04-25T22:37:16.778Z,71.00
2023-04-25T22:39:46.111Z,71.29
2023-04-25T22:42:14.987Z,71.44
2023-04-25T22:44:57.300Z,71.76
2023-04-25T22:47:36.858Z,71.82
2023-04-25T22:50:12.318Z,73.03
2023-04-25T22:52:42.606Z,71.97
2023-04-25T22:55:22.378Z,72.87
2023-04-25T22:58:00.448Z,73.01
2023-04-25T23:00:39.908Z,72.81
2023-04-25T23:03:08.557Z,72.93
2023-04-25T23:05:47.663Z,72.44
2023-04-25T23:08:19.513Z,72.71
2023-04-25T23:10:53.551Z,72.18
2023-04-25T23:13:23.323Z,72.25
2023-04-25T23:16:02.140Z,72.89
2023-04-25T23:18:45.096Z,71.98
2023-04-25T23:21:17.118Z,70.55
2023-04-25T23:23:46.883Z,70.49
2023-04-25T23:26:17.631Z,69.43
2023-04-25T23:28:55.477Z,67.77
2023-04-25T23:31:29.843Z,68.24
2023-04-25T23:34:06.232Z,66.75
2023-04-25T23:36:39.404Z,65.54
2023-04-25T23:39:14.458Z,65.34
2023-04-25T23:41:50.544Z,65.44
2023-04-25T23:44:20.342Z,64.90
2023-04-25T23:46:55.710Z,64.80
2023-04-25T23:49:25.996Z,64.60
2023-04-25T23:51:57.917Z,64.82
2023-04-25T23:54:26.744Z,64.15
2023-04-25T23:56:58.381Z,63.94
2023-04-25T23:59:34.403Z,63.94
